American Canyon, CA

3:31 AM PDT on July 27, 2016 (GMT -0700)
South Napa Junction | | Change Station

Elev 72 ft 38.18 °N, 122.25 °W | Updated 1 minute ago

Clear
Clear
59.4 °F
Feels Like 59.4 °F
N
0.0
Wind Variable Wind from ESE

Today
High -- | Low -- °F
--% Chance of Precip.
Yesterday
High -- | Low -- °F
Precip. -- in
Pressure 29.83 in
Visibility 10.0 miles
Clouds Clear
Dew Point 55 °F
Humidity 84%
Rainfall 0.00 in
Snow Depth Not available.
6:07 AM 8:22 PM
Last Quarter, 44% visible
METAR KAPC 270954Z AUTO 00000KT 10SM CLR 14/12 A2985 RMK AO2 SLP101 T01440117
Pressure 29.83 in
Visibility 10.0 miles
Clouds Clear
Dew Point 55 °F
Humidity 84%
Rainfall 0.00 in
Snow Depth Not available.
6:07 AM 8:22 PM
Last Quarter, 44% visible
METAR KAPC 270954Z AUTO 00000KT 10SM CLR 14/12 A2985 RMK AO2 SLP101 T01440117

10-Day Weather Forecast

Almanac

Astronomy

Jul. 27, 2016 Rise Set
Actual Time
Civil Twilight
Nautical Twilight
Astronomical Twilight
Moon
Length of Visible Light
Length of Day
Tomorrow will be .
, % of the Moon is Illuminated

Today's Extremes

State Highs State Lows

Community

WunderPhotos

Upload Photos

1,927,825 photos uploaded!

WunderBlog® & News

Nearby

Air Quality

  Air Quality AQ Index Pollutant
Not available.

Snow Depth

Station Depth Elevation

Earthquake Activity

City Distance Mag. Time & Date
Minimum magnitude displayed is 2.5.

Coastal Water Temperatures

Place Temperature

Stations

Nearby Weather Stations

Station Location Temp. Windchill Dew Point Humidity Wind Precip. Elev Updated Type
                   

Watches & Warnings

There are currently no watches in effect.